createdAt,value
2018-06-29T00:00:10.673Z,5.93
2018-06-29T00:02:39.813Z,6.07
2018-06-29T00:05:09.542Z,6.17
2018-06-29T00:07:38.705Z,5.67
2018-06-29T00:10:07.897Z,5.50
2018-06-29T00:12:37.063Z,5.37
2018-06-29T00:15:06.236Z,5.60
2018-06-29T00:17:35.355Z,5.97
2018-06-29T00:20:04.923Z,5.70
2018-06-29T00:22:34.057Z,6.23
2018-06-29T00:25:03.189Z,6.17
2018-06-29T00:27:32.334Z,5.43
2018-06-29T00:30:01.526Z,5.60
2018-06-29T00:32:30.676Z,5.60
2018-06-29T00:34:59.810Z,5.87
2018-06-29T00:37:28.978Z,6.10
2018-06-29T00:39:58.162Z,5.83
2018-06-29T00:42:27.414Z,5.47
2018-06-29T00:44:56.588Z,5.30
2018-06-29T00:47:25.717Z,5.93
2018-06-29T00:49:54.889Z,6.07
2018-06-29T00:52:24.020Z,6.37
2018-06-29T00:54:53.145Z,6.10
2018-06-29T00:57:23.186Z,5.93
2018-06-29T00:59:52.305Z,6.73
2018-06-29T01:02:21.398Z,5.50
2018-06-29T01:04:50.549Z,5.70
2018-06-29T01:07:19.677Z,6.60
2018-06-29T01:09:48.874Z,6.23
2018-06-29T01:12:18.003Z,5.80
2018-06-29T01:14:47.156Z,6.67
2018-06-29T01:17:16.276Z,6.23
2018-06-29T01:19:45.501Z,6.53
2018-06-29T01:22:14.640Z,6.30
2018-06-29T01:24:43.789Z,5.80
2018-06-29T01:27:12.933Z,6.37
2018-06-29T01:29:42.069Z,5.93
2018-06-29T01:32:11.282Z,6.30
2018-06-29T01:34:40.428Z,6.57
2018-06-29T01:37:09.560Z,6.70
2018-06-29T01:39:38.734Z,6.37
2018-06-29T01:42:07.881Z,6.60
2018-06-29T01:44:37.078Z,6.00
2018-06-29T01:47:06.253Z,6.47
2018-06-29T01:49:35.401Z,7.23
2018-06-29T01:52:04.607Z,7.03
2018-06-29T01:54:33.796Z,6.40
2018-06-29T01:57:02.946Z,6.40
2018-06-29T01:59:38.834Z,6.60
2018-06-29T02:02:07.907Z,7.17
2018-06-29T02:04:37.038Z,6.70
2018-06-29T02:07:06.186Z,6.60
2018-06-29T02:09:35.333Z,7.50
2018-06-29T02:12:05.304Z,7.10
2018-06-29T02:14:34.413Z,6.47
2018-06-29T02:17:03.590Z,6.80
2018-06-29T02:19:32.762Z,6.83
2018-06-29T02:22:01.577Z,6.50
2018-06-29T02:24:30.575Z,6.37
2018-06-29T02:26:59.771Z,6.53
2018-06-29T02:29:28.930Z,6.27
2018-06-29T02:31:58.130Z,6.50
2018-06-29T02:34:27.266Z,6.43
2018-06-29T02:36:56.533Z,6.67
2018-06-29T02:39:25.646Z,6.50
2018-06-29T02:41:54.896Z,6.00
2018-06-29T02:44:24.105Z,6.40
2018-06-29T02:46:53.303Z,6.13
2018-06-29T02:49:22.433Z,6.27
2018-06-29T02:51:51.613Z,6.63
2018-06-29T02:54:20.757Z,6.60
2018-06-29T02:56:49.945Z,6.10
2018-06-29T02:59:19.065Z,6.53
2018-06-29T03:01:48.217Z,6.10
2018-06-29T03:04:17.377Z,6.20
2018-06-29T03:06:46.538Z,6.40
2018-06-29T03:09:15.810Z,6.70
2018-06-29T03:11:44.902Z,6.20
2018-06-29T03:14:14.050Z,6.80
2018-06-29T03:16:43.157Z,6.00
2018-06-29T03:19:12.407Z,6.10
2018-06-29T03:21:41.635Z,6.47
2018-06-29T03:24:10.800Z,6.13
2018-06-29T03:26:39.956Z,5.87
2018-06-29T03:29:09.096Z,5.40
2018-06-29T03:31:38.230Z,5.87
2018-06-29T03:34:07.376Z,5.73
2018-06-29T03:36:36.519Z,6.17
2018-06-29T03:39:07.724Z,6.13
2018-06-29T03:41:36.887Z,5.67
2018-06-29T03:44:06.063Z,6.13
2018-06-29T03:46:35.224Z,5.90
2018-06-29T03:49:04.301Z,5.70
2018-06-29T03:51:33.436Z,6.30
2018-06-29T03:54:02.587Z,6.10
2018-06-29T03:56:31.709Z,6.23
2018-06-29T03:59:00.847Z,6.93
2018-06-29T04:01:30.050Z,6.93
2018-06-29T04:03:59.276Z,6.57
2018-06-29T04:06:28.457Z,7.33
2018-06-29T04:08:57.569Z,7.40
2018-06-29T04:11:26.765Z,6.90
2018-06-29T04:13:55.971Z,7.00
2018-06-29T04:16:25.114Z,7.20
2018-06-29T04:18:54.261Z,6.93
2018-06-29T04:21:24.269Z,6.97
2018-06-29T04:23:53.441Z,6.60
2018-06-29T04:26:22.617Z,6.57
2018-06-29T04:28:51.820Z,6.13
2018-06-29T04:31:20.964Z,6.40
2018-06-29T04:33:50.134Z,6.83
2018-06-29T04:36:19.269Z,6.47
2018-06-29T04:38:48.358Z,6.90
2018-06-29T04:41:17.566Z,6.17
2018-06-29T04:43:46.753Z,6.83
2018-06-29T04:46:15.915Z,6.17
2018-06-29T04:48:45.126Z,6.37
2018-06-29T04:51:14.238Z,6.23
2018-06-29T04:53:43.522Z,6.10
2018-06-29T04:56:12.637Z,6.23
2018-06-29T04:58:41.799Z,6.40
2018-06-29T05:01:10.942Z,5.97
2018-06-29T05:03:40.072Z,6.17
2018-06-29T05:06:13.285Z,6.17
2018-06-29T05:08:42.502Z,6.10
2018-06-29T05:11:11.733Z,6.43
2018-06-29T05:13:40.849Z,6.53
2018-06-29T05:16:10.028Z,6.43
2018-06-29T05:18:39.270Z,7.00
2018-06-29T05:21:08.421Z,6.80
2018-06-29T05:23:37.530Z,7.27
2018-06-29T05:26:06.710Z,6.57
2018-06-29T05:28:35.904Z,5.90
2018-06-29T05:31:05.086Z,5.00
2018-06-29T05:33:34.211Z,6.40
2018-06-29T05:36:03.352Z,6.20
2018-06-29T05:38:32.543Z,6.70
2018-06-29T05:41:01.741Z,6.30
2018-06-29T05:43:30.923Z,6.63
2018-06-29T05:46:00.047Z,6.17
2018-06-29T05:48:29.188Z,6.57
2018-06-29T05:50:58.350Z,5.80
2018-06-29T05:53:27.541Z,5.90
2018-06-29T05:55:56.695Z,6.70
2018-06-29T05:58:25.936Z,7.60
2018-06-29T06:00:55.118Z,6.50
2018-06-29T06:03:24.321Z,6.70
2018-06-29T06:05:53.487Z,6.47
2018-06-29T06:08:22.683Z,6.80
2018-06-29T06:10:52.125Z,5.80
2018-06-29T06:13:21.310Z,6.93
2018-06-29T06:15:50.485Z,7.13
2018-06-29T06:18:19.638Z,6.73
2018-06-29T06:20:48.785Z,6.53
2018-06-29T06:23:19.462Z,7.27
2018-06-29T06:25:49.396Z,6.47
2018-06-29T06:28:19.037Z,7.70
2018-06-29T06:30:48.531Z,8.13
2018-06-29T06:33:17.984Z,6.90
2018-06-29T06:35:47.176Z,6.80
2018-06-29T06:38:16.305Z,6.53
2018-06-29T06:40:45.119Z,7.10
2018-06-29T06:43:14.143Z,7.20
2018-06-29T06:45:43.242Z,7.60
2018-06-29T06:48:12.428Z,7.83
2018-06-29T06:50:41.557Z,7.53
2018-06-29T06:53:10.694Z,6.50
2018-06-29T06:55:39.893Z,8.00
2018-06-29T06:58:09.052Z,7.00
2018-06-29T07:00:38.234Z,7.10
2018-06-29T07:03:07.526Z,7.40
2018-06-29T07:05:36.738Z,6.63
2018-06-29T07:08:06.055Z,6.77
2018-06-29T07:10:35.235Z,6.50
2018-06-29T07:13:04.474Z,6.63
2018-06-29T07:15:33.574Z,6.63
2018-06-29T07:18:02.730Z,6.37
2018-06-29T07:20:31.941Z,6.57
2018-06-29T07:23:01.098Z,6.80
2018-06-29T07:25:30.281Z,6.37
2018-06-29T07:27:59.545Z,6.17
2018-06-29T07:30:28.662Z,6.20
2018-06-29T07:32:57.905Z,6.17
2018-06-29T07:35:27.111Z,7.40
2018-06-29T07:37:56.646Z,6.90
2018-06-29T07:40:25.867Z,7.37
2018-06-29T07:42:55.022Z,6.43
2018-06-29T07:45:24.155Z,7.13
2018-06-29T07:47:53.325Z,6.80
2018-06-29T07:50:22.556Z,7.57
2018-06-29T07:52:51.702Z,6.40
2018-06-29T07:55:20.854Z,6.97
2018-06-29T07:57:50.007Z,6.70
2018-06-29T08:00:19.731Z,7.23
2018-06-29T08:02:48.613Z,6.97
2018-06-29T08:05:17.678Z,6.57
2018-06-29T08:07:46.802Z,6.80
2018-06-29T08:10:15.985Z,6.40
2018-06-29T08:12:45.134Z,6.00
2018-06-29T08:15:14.281Z,6.80
2018-06-29T08:17:43.386Z,7.43
2018-06-29T08:20:12.573Z,7.53
2018-06-29T08:22:41.725Z,6.30
2018-06-29T08:25:14.690Z,6.50
2018-06-29T08:27:44.190Z,6.73
2018-06-29T08:30:14.285Z,6.27
2018-06-29T08:32:43.481Z,6.63
2018-06-29T08:35:12.650Z,6.93
2018-06-29T08:37:41.906Z,6.90
2018-06-29T08:40:11.332Z,6.63
2018-06-29T08:42:40.559Z,6.63
2018-06-29T08:45:10.183Z,6.20
2018-06-29T08:47:39.408Z,6.50
2018-06-29T08:50:08.608Z,6.13
2018-06-29T08:52:37.807Z,6.33
2018-06-29T08:55:07.181Z,6.90
2018-06-29T08:57:36.430Z,6.53
2018-06-29T09:00:06.835Z,6.27
2018-06-29T09:02:36.082Z,7.17
2018-06-29T09:05:05.674Z,7.17
2018-06-29T09:07:35.031Z,7.17
2018-06-29T09:10:04.707Z,6.47
2018-06-29T09:12:33.863Z,8.30
2018-06-29T09:15:03.174Z,7.97
2018-06-29T09:17:32.294Z,7.63
2018-06-29T09:20:01.539Z,7.93
2018-06-29T09:22:30.759Z,8.07
2018-06-29T09:25:01.126Z,6.80
2018-06-29T09:27:31.552Z,7.40
2018-06-29T09:30:00.897Z,6.23
2018-06-29T09:32:30.266Z,6.60
2018-06-29T09:34:59.444Z,6.47
2018-06-29T09:37:28.720Z,6.27
2018-06-29T09:39:57.840Z,6.67
2018-06-29T09:42:27.692Z,6.87
2018-06-29T09:44:56.848Z,6.83
2018-06-29T09:47:26.066Z,5.93
2018-06-29T09:49:55.216Z,6.27
2018-06-29T09:52:24.416Z,6.20
2018-06-29T09:54:53.634Z,7.30
2018-06-29T09:57:22.794Z,8.93
2018-06-29T09:59:52.010Z,7.40
2018-06-29T10:02:21.798Z,7.23
2018-06-29T10:04:51.990Z,6.50
2018-06-29T10:07:21.214Z,6.40
2018-06-29T10:09:50.366Z,6.57
2018-06-29T10:12:19.521Z,5.73
2018-06-29T10:14:49.259Z,6.30
2018-06-29T10:17:18.418Z,6.10
2018-06-29T10:19:47.591Z,5.87
2018-06-29T10:22:17.371Z,6.53
2018-06-29T10:24:46.184Z,6.00
2018-06-29T10:27:15.222Z,5.70
2018-06-29T10:29:44.148Z,5.57
2018-06-29T10:32:14.012Z,6.07
2018-06-29T10:34:43.425Z,5.23
2018-06-29T10:37:12.920Z,5.50
2018-06-29T10:39:42.107Z,5.37
2018-06-29T10:42:11.223Z,5.90
2018-06-29T10:44:40.448Z,5.43
2018-06-29T10:47:09.565Z,4.80
2018-06-29T10:49:38.741Z,4.80
2018-06-29T10:52:08.016Z,5.33
2018-06-29T10:54:37.217Z,4.90
2018-06-29T10:57:06.731Z,4.90
2018-06-29T10:59:35.844Z,4.83
2018-06-29T11:02:04.913Z,4.77
2018-06-29T11:04:34.330Z,8.07
2018-06-29T11:07:03.459Z,5.67
2018-06-29T11:09:32.689Z,5.10
2018-06-29T11:12:01.900Z,5.80
2018-06-29T11:14:31.091Z,7.73
2018-06-29T11:17:00.236Z,6.10
2018-06-29T11:19:29.458Z,6.37
2018-06-29T11:21:58.629Z,5.47
2018-06-29T11:24:28.419Z,6.67
2018-06-29T11:26:57.701Z,5.97
2018-06-29T11:29:26.976Z,5.33
2018-06-29T11:31:56.189Z,5.10
2018-06-29T11:34:25.597Z,5.50
2018-06-29T11:36:54.844Z,6.23
2018-06-29T11:39:23.977Z,5.57
2018-06-29T11:41:53.231Z,6.33
2018-06-29T11:44:22.394Z,5.40
2018-06-29T11:46:51.549Z,5.33
2018-06-29T11:49:21.442Z,5.13
2018-06-29T11:51:50.646Z,5.60
2018-06-29T11:54:19.896Z,5.33
2018-06-29T11:56:49.093Z,5.57
2018-06-29T11:59:18.244Z,5.63
2018-06-29T12:01:47.402Z,5.70
2018-06-29T12:04:16.595Z,5.10
2018-06-29T12:06:45.829Z,6.87
2018-06-29T12:09:14.996Z,5.67
2018-06-29T12:11:45.082Z,5.70
2018-06-29T12:14:14.326Z,4.70
2018-06-29T12:16:43.619Z,6.20
2018-06-29T12:19:12.822Z,4.83
2018-06-29T12:21:42.069Z,4.67
2018-06-29T12:24:11.429Z,5.73
2018-06-29T12:26:40.242Z,5.70
2018-06-29T12:29:09.341Z,5.30
2018-06-29T12:31:38.638Z,5.50
2018-06-29T12:34:07.806Z,4.53
2018-06-29T12:36:36.953Z,4.50
2018-06-29T12:39:08.025Z,5.07
2018-06-29T12:41:37.239Z,4.53
2018-06-29T12:44:06.454Z,4.47
2018-06-29T12:46:35.626Z,5.20
2018-06-29T12:49:05.063Z,3.53
2018-06-29T12:51:34.329Z,4.60
2018-06-29T12:54:03.461Z,4.37
2018-06-29T12:56:32.629Z,4.22
2018-06-29T12:59:01.874Z,4.30
2018-06-29T13:01:31.034Z,3.90
2018-06-29T13:04:00.193Z,5.63
2018-06-29T13:06:29.486Z,5.40
2018-06-29T13:08:58.716Z,4.10
2018-06-29T13:11:28.370Z,4.10
2018-06-29T13:13:57.497Z,4.70
2018-06-29T13:16:26.662Z,4.73
2018-06-29T13:18:55.817Z,4.40
2018-06-29T13:21:25.925Z,3.97
2018-06-29T13:23:55.152Z,4.65
2018-06-29T13:26:24.553Z,3.75
2018-06-29T13:28:53.730Z,4.20
2018-06-29T13:31:22.868Z,4.30
2018-06-29T13:33:52.035Z,4.00
2018-06-29T13:36:21.112Z,4.30
2018-06-29T13:38:50.291Z,4.10
2018-06-29T13:41:19.446Z,4.30
2018-06-29T13:43:48.616Z,4.00
2018-06-29T13:46:17.721Z,4.63
2018-06-29T13:48:46.854Z,5.00
2018-06-29T13:51:16.076Z,3.80
2018-06-29T13:53:45.221Z,4.40
2018-06-29T13:56:14.443Z,3.37
2018-06-29T13:58:43.553Z,7.10
2018-06-29T14:01:12.706Z,4.80
2018-06-29T14:03:41.859Z,3.30
2018-06-29T14:06:10.977Z,3.85
2018-06-29T14:08:40.186Z,3.73
2018-06-29T14:11:09.389Z,3.37
2018-06-29T14:13:38.548Z,4.17
2018-06-29T14:16:07.696Z,3.70
2018-06-29T14:18:36.883Z,3.77
2018-06-29T14:21:06.140Z,3.92
2018-06-29T14:23:35.346Z,5.05
2018-06-29T14:26:04.519Z,4.20
2018-06-29T14:28:33.701Z,3.80
2018-06-29T14:31:02.859Z,5.10
2018-06-29T14:33:32.087Z,4.00
2018-06-29T14:36:01.283Z,4.97
2018-06-29T14:38:30.482Z,3.83
2018-06-29T14:40:59.647Z,4.35
2018-06-29T14:43:28.882Z,4.10
2018-06-29T14:45:58.056Z,6.15
2018-06-29T14:48:27.215Z,4.08
2018-06-29T14:50:56.482Z,5.80
2018-06-29T14:53:25.652Z,5.23
2018-06-29T14:55:54.870Z,5.67
2018-06-29T14:58:24.013Z,5.60
2018-06-29T15:00:53.165Z,4.05
2018-06-29T15:03:23.881Z,4.83
2018-06-29T15:05:53.405Z,4.05
2018-06-29T15:08:22.531Z,3.83
2018-06-29T15:10:51.745Z,4.30
2018-06-29T15:13:20.873Z,3.87
2018-06-29T15:15:50.147Z,3.83
2018-06-29T15:18:19.253Z,4.70
2018-06-29T15:20:48.522Z,4.30
2018-06-29T15:23:17.856Z,4.72
2018-06-29T15:25:47.042Z,4.20
2018-06-29T15:28:16.254Z,5.20
2018-06-29T15:30:45.279Z,6.10
2018-06-29T15:33:14.348Z,5.65
2018-06-29T15:35:43.503Z,4.85
2018-06-29T15:38:12.726Z,4.40
2018-06-29T15:40:41.890Z,5.07
2018-06-29T15:43:12.171Z,5.10
2018-06-29T15:45:41.418Z,4.40
2018-06-29T15:48:10.577Z,4.53
2018-06-29T15:50:39.706Z,4.62
2018-06-29T15:53:08.864Z,4.72
2018-06-29T15:55:38.081Z,4.22
2018-06-29T15:58:07.439Z,4.62
2018-06-29T16:00:36.621Z,4.42
2018-06-29T16:03:06.096Z,5.00
2018-06-29T16:05:35.388Z,5.37
2018-06-29T16:08:04.787Z,6.97
2018-06-29T16:10:33.910Z,6.17
2018-06-29T16:13:03.074Z,4.53
2018-06-29T16:15:32.219Z,4.10
2018-06-29T16:18:01.382Z,4.50
2018-06-29T16:20:30.564Z,3.95
2018-06-29T16:23:00.045Z,3.85
2018-06-29T16:25:29.317Z,4.30
2018-06-29T16:27:58.488Z,4.80
2018-06-29T16:30:27.702Z,4.65
2018-06-29T16:32:56.913Z,4.40
2018-06-29T16:35:26.037Z,3.95
2018-06-29T16:37:54.887Z,4.40
2018-06-29T16:40:23.958Z,4.50
2018-06-29T16:42:53.118Z,4.00
2018-06-29T16:45:22.287Z,4.25
2018-06-29T16:47:51.529Z,4.55
2018-06-29T16:50:20.721Z,3.70
2018-06-29T16:52:50.009Z,4.12
2018-06-29T16:55:19.428Z,3.85
2018-06-29T16:57:48.634Z,3.72
2018-06-29T17:00:18.056Z,3.77
2018-06-29T17:02:47.247Z,4.03
2018-06-29T17:05:16.393Z,3.95
2018-06-29T17:07:45.534Z,3.67
2018-06-29T17:10:14.764Z,3.73
2018-06-29T17:12:43.969Z,3.98
2018-06-29T17:15:13.137Z,3.85
2018-06-29T17:17:42.433Z,4.20
2018-06-29T17:20:11.596Z,3.77
2018-06-29T17:22:40.930Z,4.50
2018-06-29T17:25:11.097Z,4.00
2018-06-29T17:27:40.566Z,3.58
2018-06-29T17:30:10.994Z,3.98
2018-06-29T17:32:40.173Z,4.47
2018-06-29T17:35:09.364Z,4.20
2018-06-29T17:37:39.270Z,4.17
2018-06-29T17:40:08.478Z,3.90
2018-06-29T17:42:37.690Z,3.80
2018-06-29T17:45:06.967Z,3.60
2018-06-29T17:47:36.210Z,3.58
2018-06-29T17:50:05.420Z,3.60
2018-06-29T17:52:34.673Z,3.70
2018-06-29T17:55:03.928Z,3.72
2018-06-29T17:57:33.157Z,3.95
2018-06-29T18:00:02.380Z,3.80
2018-06-29T18:02:31.555Z,3.25
2018-06-29T18:05:00.700Z,4.10
2018-06-29T18:07:29.957Z,4.12
2018-06-29T18:09:59.168Z,3.63
2018-06-29T18:12:28.299Z,4.10
2018-06-29T18:14:57.522Z,4.47
2018-06-29T18:17:26.846Z,3.90
2018-06-29T18:19:56.053Z,4.70
2018-06-29T18:22:25.263Z,3.90
2018-06-29T18:24:54.533Z,3.90
2018-06-29T18:27:23.846Z,3.55
2018-06-29T18:29:53.129Z,3.73
2018-06-29T18:32:22.300Z,3.52
2018-06-29T18:34:51.585Z,3.83
2018-06-29T18:37:20.864Z,3.92
2018-06-29T18:39:50.062Z,4.25
2018-06-29T18:42:19.759Z,4.92
2018-06-29T18:44:48.939Z,4.10
2018-06-29T18:47:18.236Z,4.35
2018-06-29T18:49:47.710Z,4.22
2018-06-29T18:52:16.938Z,4.47
2018-06-29T18:54:46.392Z,4.30
2018-06-29T18:57:15.781Z,5.95
2018-06-29T18:59:45.150Z,6.37
2018-06-29T19:02:15.110Z,5.00
2018-06-29T19:04:44.409Z,4.50
2018-06-29T19:07:13.570Z,4.90
2018-06-29T19:09:42.747Z,4.33
2018-06-29T19:12:12.094Z,4.40
2018-06-29T19:14:41.362Z,6.10
2018-06-29T19:17:10.612Z,23.60
2018-06-29T19:19:39.984Z,27.97
2018-06-29T19:22:09.279Z,4.87
2018-06-29T19:24:40.231Z,4.60
2018-06-29T19:27:09.511Z,4.65
2018-06-29T19:29:38.731Z,4.85
2018-06-29T19:32:08.116Z,5.30
2018-06-29T19:34:37.295Z,5.27
2018-06-29T19:37:06.552Z,5.55
2018-06-29T19:39:35.760Z,5.37
2018-06-29T19:42:04.946Z,5.60
2018-06-29T19:44:34.159Z,5.80
2018-06-29T19:47:03.403Z,6.00
2018-06-29T19:49:33.005Z,5.40
2018-06-29T19:52:01.838Z,6.17
2018-06-29T19:54:30.924Z,6.40
2018-06-29T19:57:00.109Z,6.10
2018-06-29T19:59:31.797Z,5.47
2018-06-29T20:02:01.038Z,5.63
2018-06-29T20:04:30.134Z,5.60
2018-06-29T20:06:59.221Z,5.67
2018-06-29T20:09:28.453Z,6.07
2018-06-29T20:11:57.620Z,5.43
2018-06-29T20:14:26.521Z,5.20
2018-06-29T20:16:55.545Z,5.33
2018-06-29T20:19:24.735Z,5.80
2018-06-29T20:21:53.895Z,5.90
2018-06-29T20:24:23.041Z,5.77
2018-06-29T20:26:52.218Z,5.10
2018-06-29T20:29:21.353Z,5.30
2018-06-29T20:31:50.626Z,5.13
2018-06-29T20:34:19.929Z,8.70
2018-06-29T20:36:49.226Z,6.60
2018-06-29T20:39:18.599Z,5.03
2018-06-29T20:41:47.922Z,5.47
2018-06-29T20:44:17.180Z,6.00
2018-06-29T20:46:46.394Z,5.97
2018-06-29T20:49:15.229Z,6.17
2018-06-29T20:51:44.322Z,5.53
2018-06-29T20:54:13.537Z,5.33
2018-06-29T20:56:42.780Z,6.03
2018-06-29T20:59:12.014Z,6.00
2018-06-29T21:01:41.154Z,5.53
2018-06-29T21:04:10.313Z,5.47
2018-06-29T21:06:39.465Z,5.80
2018-06-29T21:09:09.977Z,5.77
2018-06-29T21:11:39.235Z,5.83
2018-06-29T21:14:08.468Z,5.10
2018-06-29T21:16:37.626Z,6.03
2018-06-29T21:19:06.966Z,5.43
2018-06-29T21:21:36.161Z,7.77
2018-06-29T21:24:05.350Z,5.93
2018-06-29T21:26:34.576Z,5.93
2018-06-29T21:29:03.789Z,5.70
2018-06-29T21:31:33.738Z,6.73
2018-06-29T21:34:03.056Z,7.00
2018-06-29T21:36:32.233Z,9.70
2018-06-29T21:39:01.466Z,7.37
2018-06-29T21:41:30.700Z,6.73
2018-06-29T21:43:59.895Z,6.40
2018-06-29T21:46:29.169Z,8.53
2018-06-29T21:48:58.375Z,6.60
2018-06-29T21:51:27.676Z,7.17
2018-06-29T21:53:56.570Z,8.67
2018-06-29T21:56:26.522Z,11.30
2018-06-29T21:58:56.222Z,7.20
2018-06-29T22:01:25.415Z,6.93
2018-06-29T22:03:54.588Z,7.90
2018-06-29T22:06:23.863Z,6.47
2018-06-29T22:08:52.992Z,7.20
2018-06-29T22:11:21.892Z,7.97
2018-06-29T22:13:50.952Z,8.03
2018-06-29T22:16:20.211Z,8.20
2018-06-29T22:18:49.391Z,7.77
2018-06-29T22:21:18.615Z,9.40
2018-06-29T22:23:47.823Z,8.17
2018-06-29T22:26:17.098Z,7.10
2018-06-29T22:28:46.916Z,10.27
2018-06-29T22:31:16.145Z,9.47
2018-06-29T22:33:45.328Z,7.80
2018-06-29T22:36:14.586Z,9.23
2018-06-29T22:38:44.038Z,8.03
2018-06-29T22:41:13.208Z,7.67
2018-06-29T22:43:42.389Z,7.10
2018-06-29T22:46:11.679Z,7.50
2018-06-29T22:48:40.855Z,7.17
2018-06-29T22:51:10.044Z,7.43
2018-06-29T22:53:39.183Z,7.23
2018-06-29T22:56:08.376Z,6.80
2018-06-29T22:58:38.669Z,7.30
2018-06-29T23:01:07.876Z,6.83
2018-06-29T23:03:42.345Z,6.83
2018-06-29T23:06:11.515Z,6.60
2018-06-29T23:08:40.726Z,7.40
2018-06-29T23:11:09.924Z,7.50
2018-06-29T23:13:39.183Z,7.60
2018-06-29T23:16:08.421Z,8.60
2018-06-29T23:18:37.626Z,8.57
2018-06-29T23:21:06.779Z,10.03
2018-06-29T23:23:35.988Z,10.60
2018-06-29T23:26:05.640Z,9.43
2018-06-29T23:28:34.939Z,8.97
2018-06-29T23:31:04.141Z,8.00
2018-06-29T23:33:33.420Z,7.40
2018-06-29T23:36:02.610Z,7.43
2018-06-29T23:38:31.767Z,7.73
2018-06-29T23:41:01.041Z,8.07
2018-06-29T23:43:30.270Z,7.90
2018-06-29T23:45:59.441Z,7.40
2018-06-29T23:48:28.583Z,7.30
2018-06-29T23:50:57.772Z,7.17
2018-06-29T23:53:26.990Z,7.83
2018-06-29T23:55:55.881Z,7.27
2018-06-29T23:58:24.959Z,7.70
